createdAt,value
2019-04-23T00:00:58.133Z,13.90
2019-04-23T00:03:32.741Z,13.80
2019-04-23T00:05:59.501Z,13.80
2019-04-23T00:08:29.212Z,13.80
2019-04-23T00:10:59.058Z,13.80
2019-04-23T00:13:30.506Z,13.80
2019-04-23T00:21:24.897Z,13.70
2019-04-23T00:24:04.790Z,13.70
2019-04-23T00:28:59.977Z,13.60
2019-04-23T00:31:24.580Z,13.60
2019-04-23T00:33:57.832Z,13.50
2019-04-23T00:36:32.562Z,13.50
2019-04-23T00:38:54.271Z,13.50
2019-04-23T00:41:33.378Z,13.50
2019-04-23T00:46:35.291Z,13.50
2019-04-23T00:49:05.780Z,13.50
2019-04-23T00:51:36.905Z,13.40
2019-04-23T00:54:06.025Z,13.40
2019-04-23T00:56:55.337Z,13.40
2019-04-23T00:59:06.263Z,13.40
2019-04-23T01:01:44.479Z,13.30
2019-04-23T01:04:10.294Z,13.30
2019-04-23T01:06:39.356Z,13.30
2019-04-23T01:09:12.096Z,13.30
2019-04-23T01:11:46.644Z,13.30
2019-04-23T01:14:18.030Z,13.20
2019-04-23T01:16:42.666Z,13.20
2019-04-23T01:21:47.673Z,13.20
2019-04-23T01:24:38.504Z,13.10
2019-04-23T01:27:46.022Z,13.10
2019-04-23T01:32:36.939Z,13.10
2019-04-23T01:37:43.255Z,13.00
2019-04-23T01:40:18.773Z,13.00
2019-04-23T01:42:43.969Z,13.00
2019-04-23T01:45:28.511Z,13.00
2019-04-23T01:55:44.069Z,12.90
2019-04-23T01:58:07.012Z,12.90
2019-04-23T02:00:32.772Z,12.80
2019-04-23T02:03:06.035Z,12.80
2019-04-23T02:08:03.986Z,12.80
2019-04-23T02:13:13.607Z,12.70
2019-04-23T02:15:37.408Z,12.70
2019-04-23T02:18:20.571Z,12.70
2019-04-23T02:20:44.371Z,12.60
2019-04-23T02:23:24.677Z,12.70
2019-04-23T02:25:54.221Z,12.60
2019-04-23T02:28:47.049Z,12.60
2019-04-23T02:33:46.100Z,12.60
2019-04-23T02:36:11.273Z,12.50
2019-04-23T02:41:12.838Z,12.50
2019-04-23T02:46:05.754Z,12.40
2019-04-23T02:48:45.859Z,12.40
2019-04-23T02:51:17.960Z,12.40
2019-04-23T02:56:24.135Z,12.30
2019-04-23T03:06:20.833Z,12.30
2019-04-23T03:08:49.206Z,12.30
2019-04-23T03:11:26.735Z,12.20
2019-04-23T03:14:03.462Z,12.20
2019-04-23T03:17:00.375Z,12.20
2019-04-23T03:19:45.808Z,12.20
2019-04-23T03:22:35.839Z,12.20
2019-04-23T03:25:25.305Z,12.20
2019-04-23T03:27:46.420Z,12.10
2019-04-23T03:30:49.590Z,12.10
2019-04-23T03:35:08.686Z,12.10
2019-04-23T03:38:12.910Z,12.00
2019-04-23T03:40:21.490Z,12.00
2019-04-23T03:43:19.802Z,12.00
2019-04-23T03:48:08.048Z,11.90
2019-04-23T03:50:35.426Z,11.90
2019-04-23T03:53:10.901Z,11.90
2019-04-23T03:55:37.603Z,11.90
2019-04-23T03:58:13.410Z,11.90
2019-04-23T04:05:45.702Z,11.80
2019-04-23T04:08:20.286Z,11.80
2019-04-23T04:13:22.774Z,11.80
2019-04-23T04:15:55.512Z,11.80
2019-04-23T04:18:38.763Z,11.80
2019-04-23T04:21:01.202Z,11.90
2019-04-23T04:25:56.917Z,11.90
2019-04-23T04:28:35.926Z,11.90
2019-04-23T04:33:40.968Z,11.90
2019-04-23T04:36:07.416Z,11.90
2019-04-23T04:41:14.370Z,11.80
2019-04-23T04:43:54.246Z,11.80
2019-04-23T04:46:12.425Z,11.80
2019-04-23T04:48:40.192Z,11.90
2019-04-23T04:51:12.569Z,11.90
2019-04-23T04:53:50.469Z,11.90
2019-04-23T04:58:47.444Z,11.90
2019-04-23T05:08:52.891Z,12.00
2019-04-23T05:16:15.927Z,12.10
2019-04-23T05:18:58.041Z,12.10
2019-04-23T05:21:21.392Z,12.10
2019-04-23T05:23:52.375Z,12.20
2019-04-23T05:26:25.132Z,12.20
2019-04-23T05:29:00.166Z,12.20
2019-04-23T05:33:58.194Z,12.30
2019-04-23T05:41:29.837Z,12.40
2019-04-23T05:44:06.387Z,12.50
2019-04-23T05:46:32.829Z,12.50
2019-04-23T05:49:08.546Z,12.50
2019-04-23T05:54:08.428Z,12.60
2019-04-23T05:56:38.298Z,12.80
2019-04-23T05:59:14.785Z,12.80
2019-04-23T06:01:54.283Z,12.80
2019-04-23T06:07:17.886Z,13.20
2019-04-23T06:09:14.392Z,13.50
2019-04-23T06:11:52.644Z,13.60
2019-04-23T06:16:49.910Z,13.40
2019-04-23T06:19:16.938Z,13.40
2019-04-23T06:26:54.231Z,13.40
2019-04-23T06:36:57.280Z,13.90
2019-04-23T06:39:33.217Z,13.80
2019-04-23T06:44:37.990Z,13.80
2019-04-23T06:47:08.584Z,14.00
2019-04-23T06:52:14.925Z,14.60
2019-04-23T06:54:50.972Z,14.70
2019-04-23T06:59:41.371Z,14.50
2019-04-23T07:05:10.442Z,14.90
2019-04-23T07:07:38.051Z,14.80
2019-04-23T07:09:44.925Z,14.90
2019-04-23T07:12:22.051Z,15.50
2019-04-23T07:17:21.226Z,15.50
2019-04-23T07:19:54.845Z,15.90
2019-04-23T07:22:23.728Z,15.50
2019-04-23T07:24:54.430Z,15.50
2019-04-23T07:27:27.773Z,15.80
2019-04-23T07:30:03.283Z,15.80
2019-04-23T07:32:31.202Z,16.00
2019-04-23T07:35:07.105Z,16.20
2019-04-23T07:37:54.545Z,16.20
2019-04-23T07:40:27.027Z,16.50
2019-04-23T07:43:10.175Z,16.10
2019-04-23T07:46:02.438Z,16.30
2019-04-23T07:48:20.838Z,16.20
2019-04-23T07:53:35.795Z,16.40
2019-04-23T07:58:33.251Z,17.50
2019-04-23T08:03:37.974Z,17.80
2019-04-23T08:06:10.326Z,18.10
2019-04-23T08:08:39.666Z,18.40
2019-04-23T08:11:33.116Z,19.00
2019-04-23T08:26:55.291Z,19.20
2019-04-23T08:29:27.717Z,20.00
2019-04-23T08:32:10.676Z,20.90
2019-04-23T08:34:56.321Z,20.50
2019-04-23T08:37:09.341Z,20.70
2019-04-23T08:45:22.727Z,19.60
2019-04-23T08:50:50.228Z,19.90
2019-04-23T08:58:34.065Z,21.10
2019-04-23T09:01:03.811Z,21.00
2019-04-23T09:05:57.409Z,20.40
2019-04-23T09:11:06.508Z,18.70
2019-04-23T09:16:05.120Z,20.00
2019-04-23T09:18:37.153Z,20.00
2019-04-23T09:21:03.480Z,18.90
2019-04-23T09:26:03.903Z,19.50
2019-04-23T09:31:41.761Z,19.10
2019-04-23T09:34:09.541Z,19.10
2019-04-23T09:39:42.189Z,18.60
2019-04-23T09:50:38.176Z,18.40
2019-04-23T10:00:56.229Z,18.90
2019-04-23T10:03:02.338Z,19.20
2019-04-23T10:05:30.969Z,19.20
2019-04-23T10:08:00.145Z,18.90
2019-04-23T10:10:20.835Z,18.90
2019-04-23T10:12:50.359Z,19.40
2019-04-23T10:15:25.059Z,19.00
2019-04-23T10:17:52.072Z,19.80
2019-04-23T10:20:22.536Z,20.30
2019-04-23T10:22:52.625Z,20.00
2019-04-23T10:25:22.786Z,20.60
2019-04-23T10:27:56.965Z,22.00
2019-04-23T10:30:23.847Z,21.80
2019-04-23T10:32:53.670Z,21.80
2019-04-23T10:35:35.356Z,21.20
2019-04-23T10:37:58.496Z,21.00
2019-04-23T10:40:30.278Z,21.50
2019-04-23T10:42:59.708Z,21.10
2019-04-23T10:46:07.912Z,22.40
2019-04-23T10:49:31.810Z,22.40
2019-04-23T10:51:51.349Z,22.40
2019-04-23T10:54:35.840Z,22.90
2019-04-23T10:56:53.587Z,22.40
2019-04-23T10:59:40.358Z,20.60
2019-04-23T11:02:31.598Z,21.00
2019-04-23T11:07:28.572Z,21.70
2019-04-23T11:12:44.927Z,21.30
2019-04-23T11:17:47.756Z,21.40
2019-04-23T11:20:30.358Z,21.30
2019-04-23T11:22:50.407Z,21.30
2019-04-23T11:25:31.869Z,21.10
2019-04-23T11:28:00.879Z,21.80
2019-04-23T11:30:32.440Z,22.60
2019-04-23T11:33:10.089Z,22.90
2019-04-23T11:35:39.671Z,23.70
2019-04-23T11:38:28.512Z,22.90
2019-04-23T11:43:07.660Z,22.50
2019-04-23T11:45:48.505Z,22.60
2019-04-23T11:51:09.303Z,23.20
2019-04-23T11:53:18.506Z,23.70
2019-04-23T11:55:47.770Z,24.00
2019-04-23T12:03:37.703Z,23.80
2019-04-23T12:06:51.104Z,23.70
2019-04-23T12:09:08.028Z,24.50
2019-04-23T12:17:15.356Z,23.40
2019-04-23T12:19:52.991Z,24.20
2019-04-23T12:24:58.248Z,23.70
2019-04-23T12:27:08.155Z,23.40
2019-04-23T12:29:44.548Z,23.20
2019-04-23T12:32:48.334Z,23.00
2019-04-23T12:35:17.705Z,22.30
2019-04-23T12:37:57.293Z,21.70
2019-04-23T12:40:25.147Z,21.50
2019-04-23T12:45:35.654Z,21.20
2019-04-23T12:53:24.341Z,21.20
2019-04-23T12:55:35.844Z,20.80
2019-04-23T12:58:20.329Z,20.80
2019-04-23T13:00:47.788Z,20.80
2019-04-23T13:03:12.175Z,21.10
2019-04-23T13:05:33.888Z,20.80
2019-04-23T13:08:33.278Z,20.90
2019-04-23T13:18:17.148Z,20.40
2019-04-23T13:20:41.504Z,20.60
2019-04-23T13:28:28.131Z,20.30
2019-04-23T13:30:59.041Z,20.20
2019-04-23T13:41:08.381Z,19.80
2019-04-23T13:48:34.530Z,19.80
2019-04-23T13:51:19.381Z,19.70
2019-04-23T13:56:19.011Z,19.70
2019-04-23T13:58:43.362Z,19.70
2019-04-23T14:01:32.373Z,19.40
2019-04-23T14:03:48.281Z,19.70
2019-04-23T14:14:05.843Z,19.30
2019-04-23T14:16:28.750Z,19.10
2019-04-23T14:18:58.315Z,19.00
2019-04-23T14:21:24.897Z,19.00
2019-04-23T14:26:29.660Z,19.00
2019-04-23T14:28:51.189Z,19.10
2019-04-23T14:31:21.875Z,19.20
2019-04-23T14:34:05.072Z,19.20
2019-04-23T14:39:10.117Z,19.10
2019-04-23T14:41:26.311Z,19.20
2019-04-23T14:44:11.024Z,19.50
2019-04-23T14:49:11.655Z,19.40
2019-04-23T14:51:52.970Z,19.30
2019-04-23T14:54:25.299Z,19.30
2019-04-23T14:56:52.647Z,19.30
2019-04-23T14:59:14.896Z,19.40
2019-04-23T15:01:49.507Z,19.20
2019-04-23T15:04:20.429Z,19.30
2019-04-23T15:07:00.747Z,19.50
2019-04-23T15:09:28.122Z,19.50
2019-04-23T15:12:04.892Z,19.50
2019-04-23T15:14:32.665Z,19.30
2019-04-23T15:16:59.959Z,18.90
2019-04-23T15:22:12.140Z,19.20
2019-04-23T15:24:38.804Z,18.90
2019-04-23T15:29:27.866Z,18.90
2019-04-23T15:32:18.665Z,18.80
2019-04-23T15:34:42.626Z,19.00
2019-04-23T15:37:36.315Z,18.90
2019-04-23T15:39:47.569Z,19.10
2019-04-23T15:42:18.184Z,19.10
2019-04-23T15:44:50.193Z,19.00
2019-04-23T15:49:51.578Z,18.90
2019-04-23T15:52:22.870Z,18.90
2019-04-23T15:54:56.986Z,19.00
2019-04-23T15:57:32.369Z,18.60
2019-04-23T15:59:57.121Z,18.70
2019-04-23T16:01:58.249Z,18.60
2019-04-23T16:04:27.724Z,18.60
2019-04-23T16:06:57.213Z,18.40
2019-04-23T16:10:04.297Z,18.50
2019-04-23T16:12:25.451Z,18.40
2019-04-23T16:15:02.398Z,18.20
2019-04-23T16:17:29.011Z,18.10
2019-04-23T16:22:39.449Z,18.00
2019-04-23T16:25:13.367Z,17.70
2019-04-23T16:27:49.002Z,17.70
2019-04-23T16:36:01.919Z,17.70
2019-04-23T16:41:09.885Z,17.70
2019-04-23T16:43:30.676Z,17.60
2019-04-23T16:46:09.770Z,17.60
2019-04-23T16:48:40.345Z,17.60
2019-04-23T16:53:47.016Z,17.50
2019-04-23T16:56:13.145Z,17.40
2019-04-23T16:59:04.791Z,17.30
2019-04-23T17:03:38.363Z,17.30
2019-04-23T17:06:15.891Z,17.20
2019-04-23T17:08:53.083Z,17.20
2019-04-23T17:11:25.312Z,17.20
2019-04-23T17:13:52.144Z,17.20
2019-04-23T17:21:18.071Z,16.80
2019-04-23T17:26:25.620Z,16.90
2019-04-23T17:33:58.935Z,16.80
2019-04-23T17:37:03.490Z,16.70
2019-04-23T17:39:25.434Z,16.70
2019-04-23T17:42:34.044Z,16.70
2019-04-23T17:45:06.450Z,16.60
2019-04-23T17:50:07.142Z,16.40
2019-04-23T17:52:35.595Z,16.30
2019-04-23T17:55:13.070Z,16.30
2019-04-23T17:57:38.029Z,16.20
2019-04-23T18:00:16.076Z,16.20
2019-04-23T18:02:55.153Z,16.20
2019-04-23T18:05:10.827Z,16.20
2019-04-23T18:07:54.670Z,16.10
2019-04-23T18:10:25.009Z,16.00
2019-04-23T18:12:57.747Z,15.90
2019-04-23T18:15:13.177Z,15.80
2019-04-23T18:17:48.514Z,15.80
2019-04-23T18:20:29.569Z,15.80
2019-04-23T18:25:43.639Z,15.70
2019-04-23T18:28:08.452Z,15.60
2019-04-23T18:36:02.470Z,15.40
2019-04-23T18:38:41.659Z,15.30
2019-04-23T18:41:18.094Z,15.30
2019-04-23T18:43:56.769Z,15.30
2019-04-23T18:46:16.615Z,15.20
2019-04-23T18:51:33.172Z,15.10
2019-04-23T18:53:48.172Z,15.10
2019-04-23T18:56:48.591Z,15.10
2019-04-23T18:58:54.648Z,15.00
2019-04-23T19:01:28.434Z,14.90
2019-04-23T19:04:19.589Z,14.90
2019-04-23T19:09:32.234Z,14.80
2019-04-23T19:12:14.422Z,14.80
2019-04-23T19:17:42.184Z,14.70
2019-04-23T19:20:04.400Z,14.70
2019-04-23T19:24:59.630Z,14.60
2019-04-23T19:27:28.624Z,14.60
2019-04-23T19:30:26.366Z,14.60
2019-04-23T19:32:43.234Z,14.50
2019-04-23T19:35:07.096Z,14.40
2019-04-23T19:37:49.471Z,14.40
2019-04-23T19:40:14.104Z,14.30
2019-04-23T19:42:47.826Z,14.30
2019-04-23T19:45:17.205Z,14.30
2019-04-23T19:50:17.555Z,14.20
2019-04-23T19:55:29.827Z,14.10
2019-04-23T19:57:49.233Z,14.10
2019-04-23T20:00:21.172Z,14.10
2019-04-23T20:03:12.002Z,14.10
2019-04-23T20:05:23.640Z,14.00
2019-04-23T20:08:02.229Z,13.90
2019-04-23T20:10:21.334Z,13.90
2019-04-23T20:12:47.267Z,13.90
2019-04-23T20:15:30.951Z,13.80
2019-04-23T20:18:05.312Z,13.80
2019-04-23T20:28:14.973Z,13.70
2019-04-23T20:31:54.523Z,13.70
2019-04-23T20:34:02.871Z,13.70
2019-04-23T20:36:36.329Z,13.60
2019-04-23T20:39:13.505Z,13.60
2019-04-23T20:41:54.754Z,13.60
2019-04-23T20:46:56.378Z,13.50
2019-04-23T20:49:16.498Z,13.40
2019-04-23T20:51:49.911Z,13.40
2019-04-23T20:54:18.827Z,13.40
2019-04-23T20:57:11.970Z,13.30
2019-04-23T20:59:53.182Z,13.30
2019-04-23T21:02:42.095Z,13.30
2019-04-23T21:05:10.155Z,13.20
2019-04-23T21:07:31.591Z,13.20
2019-04-23T21:10:12.423Z,13.10
2019-04-23T21:12:45.635Z,13.10
2019-04-23T21:17:38.432Z,13.00
2019-04-23T21:20:08.183Z,12.90
2019-04-23T21:22:36.972Z,12.90
2019-04-23T21:25:06.166Z,12.90
2019-04-23T21:28:01.986Z,12.80
2019-04-23T21:30:43.049Z,12.80
2019-04-23T21:33:06.552Z,12.70
2019-04-23T21:36:05.062Z,12.70
2019-04-23T21:38:39.081Z,12.70
2019-04-23T21:43:59.270Z,12.50
2019-04-23T21:46:15.933Z,12.50
2019-04-23T21:49:03.312Z,12.60
2019-04-23T21:51:24.191Z,12.60
2019-04-23T21:53:46.400Z,12.50
2019-04-23T21:56:15.561Z,12.50
2019-04-23T21:58:59.828Z,12.40
2019-04-23T22:04:08.644Z,12.50
2019-04-23T22:09:05.005Z,12.40
2019-04-23T22:16:35.636Z,12.20
2019-04-23T22:19:10.577Z,12.20
2019-04-23T22:21:41.178Z,12.20
2019-04-23T22:26:34.834Z,12.10
2019-04-23T22:29:05.544Z,12.10
2019-04-23T22:31:41.733Z,12.10
2019-04-23T22:36:52.400Z,12.10
2019-04-23T22:39:11.496Z,12.10
2019-04-23T22:41:50.435Z,12.10
2019-04-23T22:44:30.985Z,12.10
2019-04-23T22:46:53.616Z,12.10
2019-04-23T22:49:47.944Z,12.10
2019-04-23T22:52:06.625Z,12.00
2019-04-23T22:54:39.784Z,12.00
2019-04-23T22:56:56.576Z,12.00
2019-04-23T23:02:36.700Z,11.90
2019-04-23T23:04:52.829Z,11.90
2019-04-23T23:07:19.748Z,11.90
2019-04-23T23:09:55.731Z,11.80
2019-04-23T23:12:20.966Z,11.80
2019-04-23T23:14:57.460Z,11.70
2019-04-23T23:17:27.067Z,11.70
2019-04-23T23:20:01.756Z,11.60
2019-04-23T23:22:27.422Z,11.60
2019-04-23T23:25:09.223Z,11.60
2019-04-23T23:27:23.697Z,11.50
2019-04-23T23:30:05.256Z,11.50
2019-04-23T23:32:35.375Z,11.40
2019-04-23T23:35:14.954Z,11.40
2019-04-23T23:37:28.394Z,11.30
2019-04-23T23:40:16.973Z,11.30
2019-04-23T23:42:34.275Z,11.20
2019-04-23T23:45:12.732Z,11.20
2019-04-23T23:47:38.882Z,11.20
2019-04-23T23:52:49.885Z,11.20
2019-04-23T23:55:16.667Z,11.20
2019-04-23T23:57:50.377Z,11.10
